sensor_id;sensor_type;location;lat;lon;timestamp;pressure;altitude;pressure_sealevel;temperature;humidity
19751;BME280;4663;49.120;9.730;2023-02-04T00:01:30;99214.78;;;3.39;95.95
19751;BME280;4663;49.120;9.730;2023-02-04T00:03:56;99219.59;;;3.34;96.53
19751;BME280;4663;49.120;9.730;2023-02-04T00:06:21;99219.19;;;3.40;95.83
19751;BME280;4663;49.120;9.730;2023-02-04T00:08:47;99219.63;;;3.47;94.87
19751;BME280;4663;49.120;9.730;2023-02-04T00:11:12;99216.94;;;3.34;94.32
19751;BME280;4663;49.120;9.730;2023-02-04T00:13:37;99201.66;;;3.49;94.24
19751;BME280;4663;49.120;9.730;2023-02-04T00:16:03;99215.25;;;3.32;95.15
19751;BME280;4663;49.120;9.730;2023-02-04T00:18:28;99207.91;;;2.97;95.54
19751;BME280;4663;49.120;9.730;2023-02-04T00:20:54;99211.19;;;3.27;95.37
19751;BME280;4663;49.120;9.730;2023-02-04T00:23:19;99200.50;;;3.27;94.79
19751;BME280;4663;49.120;9.730;2023-02-04T00:25:45;99204.09;;;3.39;94.39
19751;BME280;4663;49.120;9.730;2023-02-04T00:28:10;99212.94;;;3.02;95.25
19751;BME280;4663;49.120;9.730;2023-02-04T00:30:35;99215.69;;;3.13;94.70
19751;BME280;4663;49.120;9.730;2023-02-04T00:33:01;99216.13;;;3.07;94.70
19751;BME280;4663;49.120;9.730;2023-02-04T00:35:27;99216.53;;;3.14;95.29
19751;BME280;4663;49.120;9.730;2023-02-04T00:37:52;99221.47;;;3.20;94.52
19751;BME280;4663;49.120;9.730;2023-02-04T00:40:18;99211.66;;;2.95;95.63
19751;BME280;4663;49.120;9.730;2023-02-04T00:42:44;99220.59;;;3.06;95.13
19751;BME280;4663;49.120;9.730;2023-02-04T00:45:10;99235.13;;;2.89;96.48
19751;BME280;4663;49.120;9.730;2023-02-04T00:47:36;99214.44;;;2.93;96.33
19751;BME280;4663;49.120;9.730;2023-02-04T00:50:02;99215.25;;;3.06;95.28
19751;BME280;4663;49.120;9.730;2023-02-04T00:52:27;99231.06;;;2.97;95.60
19751;BME280;4663;49.120;9.730;2023-02-04T00:54:52;99236.28;;;2.85;96.19
19751;BME280;4663;49.120;9.730;2023-02-04T00:57:18;99233.63;;;2.85;95.85
19751;BME280;4663;49.120;9.730;2023-02-04T00:59:43;99233.00;;;2.69;96.47
19751;BME280;4663;49.120;9.730;2023-02-04T01:02:09;99235.53;;;2.57;96.75
19751;BME280;4663;49.120;9.730;2023-02-04T01:04:34;99249.63;;;2.59;96.34
19751;BME280;4663;49.120;9.730;2023-02-04T01:07:00;99241.19;;;2.65;95.74
19751;BME280;4663;49.120;9.730;2023-02-04T01:09:25;99238.84;;;2.74;95.48
19751;BME280;4663;49.120;9.730;2023-02-04T01:11:50;99244.69;;;2.53;94.99
19751;BME280;4663;49.120;9.730;2023-02-04T01:14:16;99258.56;;;2.45;95.71
19751;BME280;4663;49.120;9.730;2023-02-04T01:16:41;99261.72;;;2.24;96.20
19751;BME280;4663;49.120;9.730;2023-02-04T01:19:07;99251.06;;;2.24;96.01
19751;BME280;4663;49.120;9.730;2023-02-04T01:21:33;99241.38;;;2.36;95.31
19751;BME280;4663;49.120;9.730;2023-02-04T01:23:58;99254.69;;;2.36;94.63
19751;BME280;4663;49.120;9.730;2023-02-04T01:26:23;99260.34;;;2.04;95.18
19751;BME280;4663;49.120;9.730;2023-02-04T01:28:49;99255.63;;;2.22;94.41
19751;BME280;4663;49.120;9.730;2023-02-04T01:31:15;99260.84;;;2.24;93.89
19751;BME280;4663;49.120;9.730;2023-02-04T01:33:41;99264.47;;;2.23;94.02
19751;BME280;4663;49.120;9.730;2023-02-04T01:36:07;99259.13;;;1.95;93.94
19751;BME280;4663;49.120;9.730;2023-02-04T01:38:32;99270.50;;;1.84;93.91
19751;BME280;4663;49.120;9.730;2023-02-04T01:40:58;99263.13;;;1.60;94.91
19751;BME280;4663;49.120;9.730;2023-02-04T01:43:24;99270.75;;;1.67;95.15
19751;BME280;4663;49.120;9.730;2023-02-04T01:45:50;99274.97;;;1.84;94.37
19751;BME280;4663;49.120;9.730;2023-02-04T01:48:16;99278.13;;;1.76;94.24
19751;BME280;4663;49.120;9.730;2023-02-04T01:51:05;99275.38;;;1.48;94.97
19751;BME280;4663;49.120;9.730;2023-02-04T01:53:32;99272.91;;;1.60;95.58
19751;BME280;4663;49.120;9.730;2023-02-04T01:55:58;99280.88;;;1.74;94.63
19751;BME280;4663;49.120;9.730;2023-02-04T01:58:23;99284.63;;;1.57;93.64
19751;BME280;4663;49.120;9.730;2023-02-04T02:00:49;99292.88;;;1.23;95.43
19751;BME280;4663;49.120;9.730;2023-02-04T02:03:15;99298.19;;;1.23;95.81
19751;BME280;4663;49.120;9.730;2023-02-04T02:05:43;99285.94;;;1.35;94.78
19751;BME280;4663;49.120;9.730;2023-02-04T02:08:10;99293.25;;;1.46;95.04
19751;BME280;4663;49.120;9.730;2023-02-04T02:10:38;99311.25;;;1.57;94.53
19751;BME280;4663;49.120;9.730;2023-02-04T02:13:09;99308.34;;;1.46;93.95
19751;BME280;4663;49.120;9.730;2023-02-04T02:15:35;99308.16;;;1.34;94.96
19751;BME280;4663;49.120;9.730;2023-02-04T02:18:01;99314.84;;;1.27;94.64
19751;BME280;4663;49.120;9.730;2023-02-04T02:20:27;99311.59;;;1.22;95.08
19751;BME280;4663;49.120;9.730;2023-02-04T02:23:14;99314.56;;;1.17;94.57
19751;BME280;4663;49.120;9.730;2023-02-04T02:25:42;99316.72;;;0.96;95.22
19751;BME280;4663;49.120;9.730;2023-02-04T02:28:13;99312.13;;;0.98;94.91
19751;BME280;4663;49.120;9.730;2023-02-04T02:30:40;99321.72;;;1.00;95.27
19751;BME280;4663;49.120;9.730;2023-02-04T02:33:06;99316.88;;;0.93;94.93
19751;BME280;4663;49.120;9.730;2023-02-04T02:35:32;99328.09;;;0.83;95.50
19751;BME280;4663;49.120;9.730;2023-02-04T02:37:57;99321.44;;;0.91;95.07
19751;BME280;4663;49.120;9.730;2023-02-04T02:40:23;99343.53;;;0.77;94.66
19751;BME280;4663;49.120;9.730;2023-02-04T02:42:50;99336.91;;;0.53;95.50
19751;BME280;4663;49.120;9.730;2023-02-04T02:45:24;99340.13;;;0.74;95.37
19751;BME280;4663;49.120;9.730;2023-02-04T02:47:50;99343.94;;;0.54;95.45
19751;BME280;4663;49.120;9.730;2023-02-04T02:50:19;99340.19;;;0.42;96.22
19751;BME280;4663;49.120;9.730;2023-02-04T02:52:45;99330.53;;;0.25;95.68
19751;BME280;4663;49.120;9.730;2023-02-04T02:55:16;99332.72;;;0.33;96.36
19751;BME280;4663;49.120;9.730;2023-02-04T02:57:44;99337.44;;;0.44;95.95
19751;BME280;4663;49.120;9.730;2023-02-04T03:00:28;99334.88;;;0.26;95.97
19751;BME280;4663;49.120;9.730;2023-02-04T03:05:35;99336.38;;;0.16;94.72
19751;BME280;4663;49.120;9.730;2023-02-04T03:08:03;99342.34;;;0.03;95.93
19751;BME280;4663;49.120;9.730;2023-02-04T03:10:29;99347.66;;;0.19;95.38
19751;BME280;4663;49.120;9.730;2023-02-04T03:12:54;99343.06;;;0.07;96.09
19751;BME280;4663;49.120;9.730;2023-02-04T03:15:20;99351.19;;;0.20;96.25
19751;BME280;4663;49.120;9.730;2023-02-04T03:17:45;99358.63;;;0.45;94.51
19751;BME280;4663;49.120;9.730;2023-02-04T03:20:12;99360.94;;;0.35;94.69
19751;BME280;4663;49.120;9.730;2023-02-04T03:22:38;99367.88;;;0.22;94.65
19751;BME280;4663;49.120;9.730;2023-02-04T03:25:04;99383.91;;;0.20;94.24
19751;BME280;4663;49.120;9.730;2023-02-04T03:27:29;99389.13;;;0.22;94.61
19751;BME280;4663;49.120;9.730;2023-02-04T03:29:55;99396.25;;;0.38;93.89
19751;BME280;4663;49.120;9.730;2023-02-04T03:32:21;99397.78;;;0.58;92.93
19751;BME280;4663;49.120;9.730;2023-02-04T03:34:46;99395.75;;;0.31;93.47
19751;BME280;4663;49.120;9.730;2023-02-04T03:37:11;99407.56;;;0.09;94.64
19751;BME280;4663;49.120;9.730;2023-02-04T03:39:37;99400.53;;;0.08;95.17
19751;BME280;4663;49.120;9.730;2023-02-04T03:42:02;99403.09;;;0.09;94.92
19751;BME280;4663;49.120;9.730;2023-02-04T03:44:28;99413.66;;;0.11;94.67
19751;BME280;4663;49.120;9.730;2023-02-04T03:46:53;99414.41;;;0.13;95.10
19751;BME280;4663;49.120;9.730;2023-02-04T03:49:20;99420.75;;;0.11;93.90
19751;BME280;4663;49.120;9.730;2023-02-04T03:51:46;99424.53;;;0.06;94.17
19751;BME280;4663;49.120;9.730;2023-02-04T03:54:11;99435.75;;;-0.05;94.09
19751;BME280;4663;49.120;9.730;2023-02-04T03:56:37;99429.81;;;-0.10;94.56
19751;BME280;4663;49.120;9.730;2023-02-04T03:59:02;99437.94;;;-0.13;94.87
19751;BME280;4663;49.120;9.730;2023-02-04T04:01:27;99438.84;;;-0.30;95.05
19751;BME280;4663;49.120;9.730;2023-02-04T04:03:53;99431.38;;;-0.06;95.24
19751;BME280;4663;49.120;9.730;2023-02-04T04:06:18;99439.81;;;-0.15;94.33
19751;BME280;4663;49.120;9.730;2023-02-04T04:08:43;99444.69;;;-0.23;94.69
19751;BME280;4663;49.120;9.730;2023-02-04T04:11:09;99447.09;;;-0.19;93.87
19751;BME280;4663;49.120;9.730;2023-02-04T04:13:34;99461.59;;;-0.42;94.94
19751;BME280;4663;49.120;9.730;2023-02-04T04:15:59;99458.53;;;-0.34;95.52
19751;BME280;4663;49.120;9.730;2023-02-04T04:18:25;99462.94;;;-0.17;94.48
19751;BME280;4663;49.120;9.730;2023-02-04T04:20:50;99465.25;;;-0.45;95.16
19751;BME280;4663;49.120;9.730;2023-02-04T04:23:15;99467.38;;;-0.51;95.69
19751;BME280;4663;49.120;9.730;2023-02-04T04:25:41;99467.75;;;-0.24;95.67
19751;BME280;4663;49.120;9.730;2023-02-04T04:28:06;99470.22;;;-0.21;95.12
19751;BME280;4663;49.120;9.730;2023-02-04T04:30:31;99477.28;;;-0.04;94.57
19751;BME280;4663;49.120;9.730;2023-02-04T04:32:57;99461.69;;;-0.10;94.39
19751;BME280;4663;49.120;9.730;2023-02-04T04:35:22;99459.13;;;0.05;94.37
19751;BME280;4663;49.120;9.730;2023-02-04T04:37:47;99473.50;;;0.01;94.50
19751;BME280;4663;49.120;9.730;2023-02-04T04:40:13;99484.06;;;0.02;93.68
19751;BME280;4663;49.120;9.730;2023-02-04T04:42:38;99484.88;;;-0.13;94.04
19751;BME280;4663;49.120;9.730;2023-02-04T04:45:05;99492.19;;;-0.01;94.42
19751;BME280;4663;49.120;9.730;2023-02-04T04:47:30;99492.59;;;-0.09;94.83
19751;BME280;4663;49.120;9.730;2023-02-04T04:49:56;99486.19;;;-0.05;94.19
19751;BME280;4663;49.120;9.730;2023-02-04T04:52:21;99491.63;;;-0.24;94.43
19751;BME280;4663;49.120;9.730;2023-02-04T04:54:46;99492.72;;;-0.28;94.53
19751;BME280;4663;49.120;9.730;2023-02-04T04:57:12;99491.41;;;-0.37;94.31
19751;BME280;4663;49.120;9.730;2023-02-04T04:59:37;99495.38;;;-0.28;94.23
19751;BME280;4663;49.120;9.730;2023-02-04T05:02:02;99486.84;;;-0.17;93.93
19751;BME280;4663;49.120;9.730;2023-02-04T05:04:28;99479.13;;;-0.22;94.02
19751;BME280;4663;49.120;9.730;2023-02-04T05:06:53;99481.69;;;-0.20;93.76
19751;BME280;4663;49.120;9.730;2023-02-04T05:09:18;99486.94;;;-0.36;93.63
19751;BME280;4663;49.120;9.730;2023-02-04T05:11:44;99497.97;;;-0.44;94.17
19751;BME280;4663;49.120;9.730;2023-02-04T05:14:09;99505.06;;;-0.45;93.94
19751;BME280;4663;49.120;9.730;2023-02-04T05:16:34;99504.34;;;-0.84;94.67
19751;BME280;4663;49.120;9.730;2023-02-04T05:19:00;99501.94;;;-0.53;94.63
19751;BME280;4663;49.120;9.730;2023-02-04T05:21:25;99503.28;;;-0.62;93.68
19751;BME280;4663;49.120;9.730;2023-02-04T05:23:51;99495.31;;;-0.79;94.21
19751;BME280;4663;49.120;9.730;2023-02-04T05:26:16;99499.44;;;-0.74;93.78
19751;BME280;4663;49.120;9.730;2023-02-04T05:28:41;99493.59;;;-0.81;93.40
19751;BME280;4663;49.120;9.730;2023-02-04T05:31:07;99491.75;;;-0.98;93.94
19751;BME280;4663;49.120;9.730;2023-02-04T05:33:32;99491.75;;;-0.98;94.15
19751;BME280;4663;49.120;9.730;2023-02-04T05:35:57;99487.91;;;-1.10;94.16
19751;BME280;4663;49.120;9.730;2023-02-04T05:38:23;99495.22;;;-0.96;93.45
19751;BME280;4663;49.120;9.730;2023-02-04T05:40:48;99494.91;;;-0.89;93.12
19751;BME280;4663;49.120;9.730;2023-02-04T05:43:13;99493.66;;;-0.82;93.33
19751;BME280;4663;49.120;9.730;2023-02-04T05:45:39;99486.72;;;-1.04;93.39
19751;BME280;4663;49.120;9.730;2023-02-04T05:48:04;99491.25;;;-1.06;93.11
19751;BME280;4663;49.120;9.730;2023-02-04T05:50:29;99497.03;;;-1.15;93.38
19751;BME280;4663;49.120;9.730;2023-02-04T05:52:55;99492.41;;;-1.29;93.37
19751;BME280;4663;49.120;9.730;2023-02-04T05:55:20;99507.56;;;-1.33;93.40
19751;BME280;4663;49.120;9.730;2023-02-04T05:57:45;99503.72;;;-1.45;93.59
19751;BME280;4663;49.120;9.730;2023-02-04T06:00:11;99517.09;;;-1.29;93.61
19751;BME280;4663;49.120;9.730;2023-02-04T06:02:37;99537.03;;;-1.39;93.69
19751;BME280;4663;49.120;9.730;2023-02-04T06:05:02;99539.78;;;-1.23;93.66
19751;BME280;4663;49.120;9.730;2023-02-04T06:07:27;99550.78;;;-1.31;93.81
19751;BME280;4663;49.120;9.730;2023-02-04T06:09:53;99561.63;;;-0.99;92.53
19751;BME280;4663;49.120;9.730;2023-02-04T06:12:18;99560.56;;;-1.33;92.59
19751;BME280;4663;49.120;9.730;2023-02-04T06:14:43;99566.19;;;-1.39;92.86
19751;BME280;4663;49.120;9.730;2023-02-04T06:17:09;99571.59;;;-1.42;93.87
19751;BME280;4663;49.120;9.730;2023-02-04T06:19:34;99566.44;;;-1.46;93.65
19751;BME280;4663;49.120;9.730;2023-02-04T06:21:59;99561.78;;;-1.40;93.56
19751;BME280;4663;49.120;9.730;2023-02-04T06:24:25;99554.28;;;-1.50;93.32
19751;BME280;4663;49.120;9.730;2023-02-04T06:26:50;99563.00;;;-1.48;93.52
19751;BME280;4663;49.120;9.730;2023-02-04T06:29:15;99562.72;;;-1.61;93.66
19751;BME280;4663;49.120;9.730;2023-02-04T06:31:41;99558.25;;;-1.60;94.07
19751;BME280;4663;49.120;9.730;2023-02-04T06:34:07;99569.72;;;-1.60;94.35
19751;BME280;4663;49.120;9.730;2023-02-04T06:36:32;99572.13;;;-1.53;94.48
19751;BME280;4663;49.120;9.730;2023-02-04T06:38:58;99572.19;;;-1.36;93.52
19751;BME280;4663;49.120;9.730;2023-02-04T06:41:23;99580.41;;;-1.42;94.17
19751;BME280;4663;49.120;9.730;2023-02-04T06:43:49;99584.88;;;-1.42;94.58
19751;BME280;4663;49.120;9.730;2023-02-04T06:46:14;99582.84;;;-1.37;94.24
19751;BME280;4663;49.120;9.730;2023-02-04T06:48:40;99582.59;;;-1.31;94.37
19751;BME280;4663;49.120;9.730;2023-02-04T06:51:05;99585.22;;;-1.31;93.98
19751;BME280;4663;49.120;9.730;2023-02-04T06:53:30;99580.75;;;-1.30;93.64
19751;BME280;4663;49.120;9.730;2023-02-04T06:55:56;99578.19;;;-1.32;94.17
19751;BME280;4663;49.120;9.730;2023-02-04T06:58:21;99579.00;;;-1.30;93.90
19751;BME280;4663;49.120;9.730;2023-02-04T07:00:47;99586.38;;;-1.17;93.56
19751;BME280;4663;49.120;9.730;2023-02-04T07:03:12;99581.00;;;-1.16;93.40
19751;BME280;4663;49.120;9.730;2023-02-04T07:05:37;99582.91;;;-1.00;92.94
19751;BME280;4663;49.120;9.730;2023-02-04T07:08:03;99594.53;;;-1.03;92.97
19751;BME280;4663;49.120;9.730;2023-02-04T07:10:28;99602.88;;;-0.91;93.03
19751;BME280;4663;49.120;9.730;2023-02-04T07:12:53;99595.81;;;-0.92;92.51
19751;BME280;4663;49.120;9.730;2023-02-04T07:15:19;99610.31;;;-1.00;92.97
19751;BME280;4663;49.120;9.730;2023-02-04T07:17:44;99615.69;;;-0.82;92.33
19751;BME280;4663;49.120;9.730;2023-02-04T07:20:10;99620.38;;;-0.70;92.07
19751;BME280;4663;49.120;9.730;2023-02-04T07:22:36;99621.34;;;-0.53;91.92
19751;BME280;4663;49.120;9.730;2023-02-04T07:25:01;99634.28;;;-0.45;92.27
19751;BME280;4663;49.120;9.730;2023-02-04T07:27:27;99646.16;;;-0.17;91.71
19751;BME280;4663;49.120;9.730;2023-02-04T07:29:52;99648.13;;;-0.03;91.55
19751;BME280;4663;49.120;9.730;2023-02-04T07:32:17;99651.41;;;0.02;90.68
19751;BME280;4663;49.120;9.730;2023-02-04T07:34:43;99649.59;;;0.03;89.79
19751;BME280;4663;49.120;9.730;2023-02-04T07:37:08;99661.72;;;0.08;90.25
19751;BME280;4663;49.120;9.730;2023-02-04T07:39:33;99658.72;;;0.15;90.17
19751;BME280;4663;49.120;9.730;2023-02-04T07:41:59;99670.31;;;0.14;89.76
19751;BME280;4663;49.120;9.730;2023-02-04T07:44:24;99668.44;;;0.16;90.35
19751;BME280;4663;49.120;9.730;2023-02-04T07:46:49;99670.44;;;0.11;90.31
19751;BME280;4663;49.120;9.730;2023-02-04T07:49:14;99668.91;;;-0.11;90.66
19751;BME280;4663;49.120;9.730;2023-02-04T07:51:40;99679.38;;;0.09;90.48
19751;BME280;4663;49.120;9.730;2023-02-04T07:54:05;99682.78;;;-0.06;91.15
19751;BME280;4663;49.120;9.730;2023-02-04T07:56:31;99689.69;;;0.16;91.86
19751;BME280;4663;49.120;9.730;2023-02-04T07:58:56;99688.81;;;0.33;91.67
19751;BME280;4663;49.120;9.730;2023-02-04T08:01:21;99694.69;;;0.40;91.25
19751;BME280;4663;49.120;9.730;2023-02-04T08:03:47;99698.41;;;0.53;90.87
19751;BME280;4663;49.120;9.730;2023-02-04T08:06:12;99701.00;;;0.55;90.96
19751;BME280;4663;49.120;9.730;2023-02-04T08:08:37;99698.09;;;0.59;91.30
19751;BME280;4663;49.120;9.730;2023-02-04T08:11:03;99698.09;;;0.59;90.70
19751;BME280;4663;49.120;9.730;2023-02-04T08:13:28;99701.16;;;0.52;91.49
19751;BME280;4663;49.120;9.730;2023-02-04T08:15:53;99708.56;;;0.63;90.92
19751;BME280;4663;49.120;9.730;2023-02-04T08:18:19;99700.03;;;0.73;90.42
19751;BME280;4663;49.120;9.730;2023-02-04T08:20:44;99714.09;;;0.76;90.84
19751;BME280;4663;49.120;9.730;2023-02-04T08:23:09;99724.34;;;0.83;90.28
19751;BME280;4663;49.120;9.730;2023-02-04T08:25:35;99732.31;;;0.83;90.01
19751;BME280;4663;49.120;9.730;2023-02-04T08:28:01;99729.66;;;0.83;90.24
19751;BME280;4663;49.120;9.730;2023-02-04T08:30:26;99734.72;;;0.88;90.89
19751;BME280;4663;49.120;9.730;2023-02-04T08:32:52;99735.16;;;0.96;91.07
19751;BME280;4663;49.120;9.730;2023-02-04T08:35:17;99740.75;;;0.92;90.26
19751;BME280;4663;49.120;9.730;2023-02-04T08:37:43;99736.72;;;1.00;90.88
19751;BME280;4663;49.120;9.730;2023-02-04T08:40:09;99739.09;;;1.23;89.96
19751;BME280;4663;49.120;9.730;2023-02-04T08:42:34;99743.03;;;1.16;90.05
19751;BME280;4663;49.120;9.730;2023-02-04T08:45:00;99749.06;;;1.35;89.13
19751;BME280;4663;49.120;9.730;2023-02-04T08:47:25;99751.28;;;1.43;88.96
19751;BME280;4663;49.120;9.730;2023-02-04T08:49:50;99753.38;;;1.54;88.74
19751;BME280;4663;49.120;9.730;2023-02-04T08:52:16;99754.81;;;1.44;88.58
19751;BME280;4663;49.120;9.730;2023-02-04T08:54:41;99754.03;;;1.42;88.47
19751;BME280;4663;49.120;9.730;2023-02-04T08:57:07;99760.06;;;1.45;87.82
19751;BME280;4663;49.120;9.730;2023-02-04T08:59:32;99771.38;;;1.49;88.78
19751;BME280;4663;49.120;9.730;2023-02-04T09:01:57;99760.88;;;1.63;88.68
19751;BME280;4663;49.120;9.730;2023-02-04T09:04:23;99764.81;;;1.72;88.21
19751;BME280;4663;49.120;9.730;2023-02-04T09:06:49;99774.00;;;1.83;87.32
19751;BME280;4663;49.120;9.730;2023-02-04T09:09:15;99775.97;;;1.63;87.00
19751;BME280;4663;49.120;9.730;2023-02-04T09:11:40;99777.75;;;2.11;86.77
19751;BME280;4663;49.120;9.730;2023-02-04T09:14:06;99771.69;;;1.93;84.74
19751;BME280;4663;49.120;9.730;2023-02-04T09:16:31;99779.28;;;2.15;84.83
19751;BME280;4663;49.120;9.730;2023-02-04T09:18:56;99779.34;;;1.83;83.69
19751;BME280;4663;49.120;9.730;2023-02-04T09:21:26;99785.00;;;1.93;82.21
19751;BME280;4663;49.120;9.730;2023-02-04T09:23:51;99790.16;;;1.96;83.37
19751;BME280;4663;49.120;9.730;2023-02-04T09:26:17;99791.16;;;2.09;81.81
19751;BME280;4663;49.120;9.730;2023-02-04T09:28:42;99791.50;;;2.19;82.30
19751;BME280;4663;49.120;9.730;2023-02-04T09:31:08;99788.53;;;1.93;81.61
19751;BME280;4663;49.120;9.730;2023-02-04T09:33:35;99794.47;;;2.29;81.64
19751;BME280;4663;49.120;9.730;2023-02-04T09:36:00;99805.19;;;1.97;81.75
19751;BME280;4663;49.120;9.730;2023-02-04T09:38:26;99799.63;;;2.01;79.86
19751;BME280;4663;49.120;9.730;2023-02-04T09:41:04;99804.66;;;2.22;80.28
19751;BME280;4663;49.120;9.730;2023-02-04T09:43:37;99801.84;;;1.93;79.41
19751;BME280;4663;49.120;9.730;2023-02-04T09:46:06;99810.84;;;2.23;80.71
19751;BME280;4663;49.120;9.730;2023-02-04T09:48:32;99804.56;;;2.24;79.99
19751;BME280;4663;49.120;9.730;2023-02-04T09:51:04;99808.56;;;1.84;78.65
19751;BME280;4663;49.120;9.730;2023-02-04T09:53:30;99809.91;;;2.08;77.54
19751;BME280;4663;49.120;9.730;2023-02-04T09:55:56;99821.47;;;2.39;78.31
19751;BME280;4663;49.120;9.730;2023-02-04T09:58:22;99823.25;;;1.59;78.49
19751;BME280;4663;49.120;9.730;2023-02-04T10:00:59;99819.22;;;2.00;78.80
19751;BME280;4663;49.120;9.730;2023-02-04T10:03:26;99828.47;;;1.77;78.82
19751;BME280;4663;49.120;9.730;2023-02-04T10:05:51;99830.19;;;1.62;79.20
19751;BME280;4663;49.120;9.730;2023-02-04T10:08:19;99833.47;;;2.15;78.41
19751;BME280;4663;49.120;9.730;2023-02-04T10:10:47;99827.09;;;1.70;77.94
19751;BME280;4663;49.120;9.730;2023-02-04T10:13:23;99827.78;;;2.22;78.27
19751;BME280;4663;49.120;9.730;2023-02-04T10:15:52;99832.19;;;2.53;80.85
19751;BME280;4663;49.120;9.730;2023-02-04T10:18:23;99823.22;;;2.24;76.73
19751;BME280;4663;49.120;9.730;2023-02-04T10:20:54;99818.78;;;2.55;77.08
19751;BME280;4663;49.120;9.730;2023-02-04T10:23:20;99824.59;;;2.62;77.24
19751;BME280;4663;49.120;9.730;2023-02-04T10:25:46;99832.09;;;2.86;81.14
19751;BME280;4663;49.120;9.730;2023-02-04T10:28:11;99836.03;;;3.09;82.01
19751;BME280;4663;49.120;9.730;2023-02-04T10:30:39;99823.53;;;2.95;79.16
19751;BME280;4663;49.120;9.730;2023-02-04T10:33:20;99819.09;;;2.79;76.48
19751;BME280;4663;49.120;9.730;2023-02-04T10:35:50;99816.78;;;2.28;76.69
19751;BME280;4663;49.120;9.730;2023-02-04T10:38:15;99803.53;;;2.26;75.73
19751;BME280;4663;49.120;9.730;2023-02-04T10:40:43;99810.53;;;2.44;75.47
19751;BME280;4663;49.120;9.730;2023-02-04T10:45:44;99823.19;;;2.40;77.02
19751;BME280;4663;49.120;9.730;2023-02-04T10:48:18;99823.00;;;2.74;77.29
19751;BME280;4663;49.120;9.730;2023-02-04T10:50:45;99811.81;;;2.83;75.86
19751;BME280;4663;49.120;9.730;2023-02-04T10:53:14;99813.59;;;2.83;76.94
19751;BME280;4663;49.120;9.730;2023-02-04T10:55:59;99828.03;;;3.09;79.52
19751;BME280;4663;49.120;9.730;2023-02-04T10:58:27;99824.00;;;2.87;76.76
19751;BME280;4663;49.120;9.730;2023-02-04T11:00:53;99835.75;;;2.69;78.17
19751;BME280;4663;49.120;9.730;2023-02-04T11:03:24;99824.84;;;2.43;77.01
19751;BME280;4663;49.120;9.730;2023-02-04T11:05:50;99828.16;;;2.62;75.84
19751;BME280;4663;49.120;9.730;2023-02-04T11:10:49;99835.75;;;2.69;76.06
19751;BME280;4663;49.120;9.730;2023-02-04T11:13:26;99827.81;;;2.06;75.09
19751;BME280;4663;49.120;9.730;2023-02-04T11:16:08;99825.53;;;2.30;76.08
19751;BME280;4663;49.120;9.730;2023-02-04T11:26:37;99833.13;;;1.89;77.43
19751;BME280;4663;49.120;9.730;2023-02-04T11:34:11;99821.34;;;1.61;75.78
19751;BME280;4663;49.120;9.730;2023-02-04T11:39:28;99822.56;;;1.72;74.94
19751;BME280;4663;49.120;9.730;2023-02-04T11:41:58;99827.00;;;2.20;76.07
19751;BME280;4663;49.120;9.730;2023-02-04T11:44:23;99813.88;;;2.00;73.80
19751;BME280;4663;49.120;9.730;2023-02-04T11:46:51;99831.94;;;2.11;75.17
19751;BME280;4663;49.120;9.730;2023-02-04T11:49:20;99839.50;;;2.03;75.37
19751;BME280;4663;49.120;9.730;2023-02-04T11:51:46;99837.75;;;2.34;75.15
19751;BME280;4663;49.120;9.730;2023-02-04T11:54:13;99835.53;;;1.94;76.29
19751;BME280;4663;49.120;9.730;2023-02-04T11:56:41;99842.59;;;2.11;76.64
19751;BME280;4663;49.120;9.730;2023-02-04T11:59:08;99849.63;;;1.96;77.54
19751;BME280;4663;49.120;9.730;2023-02-04T12:01:35;99847.13;;;2.09;77.35
19751;BME280;4663;49.120;9.730;2023-02-04T12:04:03;99842.25;;;2.01;77.61
19751;BME280;4663;49.120;9.730;2023-02-04T12:06:34;99837.09;;;2.14;77.07
19751;BME280;4663;49.120;9.730;2023-02-04T12:09:24;99839.16;;;1.93;76.59
19751;BME280;4663;49.120;9.730;2023-02-04T12:11:51;99851.41;;;1.46;78.12
19751;BME280;4663;49.120;9.730;2023-02-04T12:14:18;99851.69;;;1.91;78.24
19751;BME280;4663;49.120;9.730;2023-02-04T12:16:48;99854.25;;;2.25;77.12
19751;BME280;4663;49.120;9.730;2023-02-04T12:19:17;99858.13;;;2.35;78.21
19751;BME280;4663;49.120;9.730;2023-02-04T12:21:42;99855.63;;;2.16;76.67
19751;BME280;4663;49.120;9.730;2023-02-04T12:24:07;99863.63;;;1.50;78.60
19751;BME280;4663;49.120;9.730;2023-02-04T12:26:33;99863.03;;;1.79;77.91
19751;BME280;4663;49.120;9.730;2023-02-04T12:28:58;99859.47;;;1.44;77.55
19751;BME280;4663;49.120;9.730;2023-02-04T12:31:27;99865.16;;;2.20;77.44
19751;BME280;4663;49.120;9.730;2023-02-04T12:33:52;99871.63;;;1.84;77.63
19751;BME280;4663;49.120;9.730;2023-02-04T12:36:18;99860.28;;;1.46;77.36
19751;BME280;4663;49.120;9.730;2023-02-04T12:38:44;99854.59;;;1.70;77.11
19751;BME280;4663;49.120;9.730;2023-02-04T12:41:09;99870.56;;;1.86;78.71
19751;BME280;4663;49.120;9.730;2023-02-04T12:43:34;99864.56;;;1.67;78.00
19751;BME280;4663;49.120;9.730;2023-02-04T12:46:00;99862.22;;;1.43;78.93
19751;BME280;4663;49.120;9.730;2023-02-04T12:48:25;99859.56;;;1.43;78.87
19751;BME280;4663;49.120;9.730;2023-02-04T12:50:51;99869.19;;;1.11;80.13
19751;BME280;4663;49.120;9.730;2023-02-04T12:53:16;99868.75;;;1.37;79.99
19751;BME280;4663;49.120;9.730;2023-02-04T12:55:41;99858.28;;;1.34;79.34
19751;BME280;4663;49.120;9.730;2023-02-04T12:58:07;99854.53;;;1.20;79.92
19751;BME280;4663;49.120;9.730;2023-02-04T13:00:32;99863.53;;;1.35;79.60
19751;BME280;4663;49.120;9.730;2023-02-04T13:02:57;99869.53;;;1.57;79.15
19751;BME280;4663;49.120;9.730;2023-02-04T13:05:23;99864.75;;;1.96;78.42
19751;BME280;4663;49.120;9.730;2023-02-04T13:07:49;99864.25;;;2.05;76.91
19751;BME280;4663;49.120;9.730;2023-02-04T13:10:14;99861.41;;;2.24;75.99
19751;BME280;4663;49.120;9.730;2023-02-04T13:12:40;99861.13;;;1.97;75.67
19751;BME280;4663;49.120;9.730;2023-02-04T13:15:06;99849.78;;;2.25;74.77
19751;BME280;4663;49.120;9.730;2023-02-04T13:17:31;99864.25;;;2.05;76.07
19751;BME280;4663;49.120;9.730;2023-02-04T13:19:57;99861.63;;;1.71;74.86
19751;BME280;4663;49.120;9.730;2023-02-04T13:22:24;99873.78;;;2.09;75.63
19751;BME280;4663;49.120;9.730;2023-02-04T13:24:50;99876.47;;;1.42;76.42
19751;BME280;4663;49.120;9.730;2023-02-04T13:27:15;99878.88;;;1.64;77.40
19751;BME280;4663;49.120;9.730;2023-02-04T13:29:40;99874.97;;;1.87;76.46
19751;BME280;4663;49.120;9.730;2023-02-04T13:32:06;99867.69;;;2.07;75.96
19751;BME280;4663;49.120;9.730;2023-02-04T13:34:31;99866.88;;;2.37;74.83
19751;BME280;4663;49.120;9.730;2023-02-04T13:36:56;99877.47;;;2.70;77.64
19751;BME280;4663;49.120;9.730;2023-02-04T13:39:22;99866.63;;;2.26;75.83